createdAt,value
2018-04-27T00:02:06.768Z,22.87
2018-04-27T00:04:34.304Z,28.50
2018-04-27T00:07:01.709Z,24.67
2018-04-27T00:09:29.904Z,26.60
2018-04-27T00:11:58.098Z,29.43
2018-04-27T00:14:26.293Z,26.10
2018-04-27T00:16:53.716Z,24.37
2018-04-27T00:19:21.143Z,29.00
2018-04-27T00:21:48.557Z,27.93
2018-04-27T00:24:15.977Z,27.93
2018-04-27T00:26:43.396Z,24.80
2018-04-27T00:29:10.800Z,28.07
2018-04-27T00:31:38.897Z,33.55
2018-04-27T00:34:07.096Z,23.03
2018-04-27T00:36:34.523Z,28.40
2018-04-27T00:39:02.722Z,23.87
2018-04-27T00:41:30.896Z,28.43
2018-04-27T00:43:59.095Z,26.03
2018-04-27T00:46:27.268Z,23.83
2018-04-27T00:48:55.468Z,23.03
2018-04-27T00:51:23.650Z,28.57
2018-04-27T00:53:51.866Z,27.30
2018-04-27T00:56:19.811Z,31.33
2018-04-27T00:58:47.992Z,24.50
2018-04-27T01:01:16.173Z,23.33
2018-04-27T01:03:44.357Z,22.63
2018-04-27T01:06:12.536Z,24.57
2018-04-27T01:08:40.709Z,24.23
2018-04-27T01:11:08.188Z,29.80
2018-04-27T01:13:35.585Z,22.33
2018-04-27T01:16:03.008Z,25.50
2018-04-27T01:18:30.438Z,23.90
2018-04-27T01:20:57.867Z,24.70
2018-04-27T01:23:25.272Z,25.23
2018-04-27T01:25:52.700Z,24.53
2018-04-27T01:28:20.120Z,33.00
2018-04-27T01:30:47.579Z,25.17
2018-04-27T01:33:14.990Z,25.17
2018-04-27T01:35:42.409Z,19.40
2018-04-27T01:38:09.889Z,24.10
2018-04-27T01:40:37.346Z,26.23
2018-04-27T01:43:04.757Z,23.30
2018-04-27T01:45:32.179Z,27.73
2018-04-27T01:47:59.589Z,26.30
2018-04-27T01:50:27.003Z,38.90
2018-04-27T01:52:55.184Z,29.17
2018-04-27T01:55:23.380Z,31.05
2018-04-27T01:57:50.822Z,34.57
2018-04-27T02:00:18.237Z,30.77
2018-04-27T02:02:45.648Z,31.63
2018-04-27T02:05:13.098Z,30.70
2018-04-27T02:07:41.320Z,32.65
2018-04-27T02:10:10.437Z,31.37
2018-04-27T02:12:38.614Z,33.33
2018-04-27T02:15:06.025Z,29.17
2018-04-27T02:17:33.495Z,32.57
2018-04-27T02:20:00.905Z,33.17
2018-04-27T02:22:28.312Z,36.73
2018-04-27T02:24:55.736Z,27.53
2018-04-27T02:27:23.180Z,35.03
2018-04-27T02:29:50.620Z,36.65
2018-04-27T02:32:18.042Z,40.30
2018-04-27T02:34:45.474Z,30.80
2018-04-27T02:37:12.890Z,43.87
2018-04-27T02:39:41.821Z,38.10
2018-04-27T02:42:10.932Z,34.10
2018-04-27T02:44:38.352Z,43.00
2018-04-27T02:47:05.764Z,38.40
2018-04-27T02:49:33.243Z,35.60
2018-04-27T02:52:01.397Z,34.90
2018-04-27T02:54:29.572Z,35.13
2018-04-27T02:56:56.978Z,36.47
2018-04-27T02:59:24.403Z,39.93
2018-04-27T03:01:51.818Z,42.13
2018-04-27T03:04:19.232Z,40.93
2018-04-27T03:06:46.653Z,38.97
2018-04-27T03:09:14.071Z,37.47
2018-04-27T03:11:41.491Z,38.67
2018-04-27T03:14:08.899Z,42.70
2018-04-27T03:16:36.316Z,37.80
2018-04-27T03:19:03.731Z,38.13
2018-04-27T03:21:31.144Z,40.73
2018-04-27T03:23:58.617Z,38.17
2018-04-27T03:26:25.984Z,38.47
2018-04-27T03:28:54.171Z,43.00
2018-04-27T03:31:22.346Z,41.77
2018-04-27T03:33:49.778Z,44.70
2018-04-27T03:36:17.210Z,42.90
2018-04-27T03:38:44.618Z,39.97
2018-04-27T03:41:12.030Z,41.37
2018-04-27T03:43:39.448Z,40.23
2018-04-27T03:46:06.876Z,44.77
2018-04-27T03:48:34.290Z,42.80
2018-04-27T03:51:01.705Z,44.17
2018-04-27T03:53:29.128Z,42.17
2018-04-27T03:55:56.542Z,42.63
2018-04-27T03:58:23.956Z,47.40
2018-04-27T04:01:03.252Z,48.80
2018-04-27T04:03:42.356Z,43.40
2018-04-27T04:06:09.785Z,41.33
2018-04-27T04:08:37.204Z,46.10
2018-04-27T04:11:05.403Z,44.83
2018-04-27T04:13:33.580Z,44.93
2018-04-27T04:16:01.767Z,45.70
2018-04-27T04:18:29.936Z,46.47
2018-04-27T04:20:57.357Z,44.53
2018-04-27T04:23:24.764Z,43.73
2018-04-27T04:25:52.190Z,42.60
2018-04-27T04:28:19.600Z,42.90
2018-04-27T04:30:47.018Z,42.43
2018-04-27T04:33:14.450Z,38.87
2018-04-27T04:35:43.262Z,39.20
2018-04-27T04:38:12.361Z,43.93
2018-04-27T04:40:39.773Z,48.13
2018-04-27T04:43:07.209Z,40.67
2018-04-27T04:45:34.612Z,36.13
2018-04-27T04:48:02.042Z,36.73
2018-04-27T04:50:30.225Z,34.00
2018-04-27T04:52:58.410Z,43.30
2018-04-27T04:55:26.597Z,31.80
2018-04-27T04:57:54.010Z,38.40
2018-04-27T05:00:21.436Z,33.90
2018-04-27T05:02:49.639Z,34.50
2018-04-27T05:05:17.017Z,35.40
2018-04-27T05:07:44.430Z,33.97
2018-04-27T05:10:12.776Z,38.90
2018-04-27T05:12:40.201Z,39.77
2018-04-27T05:15:07.708Z,34.53
2018-04-27T05:17:35.285Z,40.53
2018-04-27T05:20:02.957Z,35.50
2018-04-27T05:22:30.382Z,40.43
2018-04-27T05:24:57.786Z,32.93
2018-04-27T05:27:25.201Z,35.33
2018-04-27T05:29:52.648Z,33.30
2018-04-27T05:32:20.824Z,30.77
2018-04-27T05:34:48.296Z,29.30
2018-04-27T05:37:15.726Z,30.00
2018-04-27T05:39:44.110Z,32.88
2018-04-27T05:42:11.523Z,24.43
2018-04-27T05:44:38.936Z,24.77
2018-04-27T05:47:06.378Z,36.00
2018-04-27T05:49:33.789Z,25.83
2018-04-27T05:52:02.025Z,29.87
2018-04-27T05:54:29.464Z,31.10
2018-04-27T05:56:56.870Z,23.50
2018-04-27T05:59:24.272Z,24.30
2018-04-27T06:01:52.461Z,26.40
2018-04-27T06:04:20.640Z,22.87
2018-04-27T06:06:48.059Z,26.87
2018-04-27T06:09:15.464Z,23.30
2018-04-27T06:11:43.903Z,23.87
2018-04-27T06:14:11.308Z,23.63
2018-04-27T06:16:38.722Z,20.97
2018-04-27T06:19:06.921Z,39.70
2018-04-27T06:21:34.360Z,23.67
2018-04-27T06:24:01.769Z,20.17
2018-04-27T06:26:29.191Z,21.83
2018-04-27T06:28:56.596Z,27.27
2018-04-27T06:31:24.060Z,24.33
2018-04-27T06:33:51.468Z,19.97
2018-04-27T06:36:18.894Z,22.17
2018-04-27T06:38:46.316Z,29.13
2018-04-27T06:41:15.067Z,18.73
2018-04-27T06:43:42.489Z,19.00
2018-04-27T06:46:09.896Z,22.20
2018-04-27T06:48:37.314Z,22.90
2018-04-27T06:51:05.203Z,21.40
2018-04-27T06:53:32.637Z,19.27
2018-04-27T06:56:00.065Z,22.60
2018-04-27T06:58:27.486Z,27.07
2018-04-27T07:00:54.900Z,25.10
2018-04-27T07:03:23.076Z,22.90
2018-04-27T07:05:51.276Z,25.65
2018-04-27T07:08:19.482Z,19.37
2018-04-27T07:10:46.882Z,23.37
2018-04-27T07:13:15.428Z,21.25
2018-04-27T07:15:44.533Z,23.20
2018-04-27T07:18:12.736Z,24.63
2018-04-27T07:20:40.160Z,21.13
2018-04-27T07:23:07.630Z,27.40
2018-04-27T07:25:35.056Z,29.83
2018-04-27T07:28:02.457Z,21.83
2018-04-27T07:30:29.893Z,22.17
2018-04-27T07:32:57.340Z,22.17
2018-04-27T07:35:24.761Z,24.43
2018-04-27T07:37:52.184Z,23.33
2018-04-27T07:40:19.652Z,23.03
2018-04-27T07:42:47.124Z,23.77
2018-04-27T07:45:15.125Z,21.30
2018-04-27T07:47:42.453Z,22.23
2018-04-27T07:50:10.648Z,23.13
2018-04-27T07:52:38.083Z,21.77
2018-04-27T07:55:05.493Z,25.00
2018-04-27T07:57:32.914Z,26.47
2018-04-27T08:00:00.430Z,21.60
2018-04-27T08:02:28.674Z,23.83
2018-04-27T08:04:56.072Z,25.77
2018-04-27T08:07:23.497Z,22.80
2018-04-27T08:09:51.201Z,19.00
2018-04-27T08:12:19.404Z,26.03
2018-04-27T08:14:46.816Z,23.10
2018-04-27T08:17:14.236Z,24.03
2018-04-27T08:19:41.668Z,20.00
2018-04-27T08:22:09.192Z,25.57
2018-04-27T08:24:36.670Z,24.47
2018-04-27T08:27:04.039Z,25.90
2018-04-27T08:29:31.454Z,25.10
2018-04-27T08:31:59.643Z,23.83
2018-04-27T08:34:27.056Z,24.43
2018-04-27T08:36:54.513Z,23.17
2018-04-27T08:39:22.708Z,21.67
2018-04-27T08:41:50.124Z,23.83
2018-04-27T08:44:17.646Z,25.80
2018-04-27T08:46:46.133Z,22.10
2018-04-27T08:49:14.764Z,19.83
2018-04-27T08:51:42.176Z,21.60
2018-04-27T08:54:10.404Z,24.93
2018-04-27T08:56:37.814Z,25.23
2018-04-27T08:59:05.230Z,21.33
2018-04-27T09:01:32.661Z,21.87
2018-04-27T09:04:00.865Z,18.13
2018-04-27T09:06:28.317Z,19.93
2018-04-27T09:08:56.491Z,19.57
2018-04-27T09:11:24.693Z,19.37
2018-04-27T09:13:52.873Z,17.17
2018-04-27T09:16:21.128Z,21.13
2018-04-27T09:18:48.470Z,14.90
2018-04-27T09:21:17.120Z,24.65
2018-04-27T09:23:46.228Z,17.17
2018-04-27T09:26:14.552Z,15.13
2018-04-27T09:28:42.709Z,22.80
2018-04-27T09:31:10.912Z,19.53
2018-04-27T09:33:38.365Z,20.10
2018-04-27T09:36:06.635Z,16.67
2018-04-27T09:38:35.553Z,18.57
2018-04-27T09:41:03.836Z,23.77
2018-04-27T09:43:31.188Z,20.50
2018-04-27T09:45:58.701Z,19.00
2018-04-27T09:48:26.206Z,25.37
2018-04-27T09:50:53.634Z,19.13
2018-04-27T09:53:21.070Z,18.63
2018-04-27T09:55:48.548Z,20.80
2018-04-27T09:58:17.663Z,17.60
2018-04-27T10:00:46.760Z,22.13
2018-04-27T10:03:14.937Z,18.03
2018-04-27T10:05:42.467Z,15.20
2018-04-27T10:08:09.776Z,17.80
2018-04-27T10:10:37.305Z,19.57
2018-04-27T10:13:06.273Z,18.00
2018-04-27T10:15:33.694Z,19.80
2018-04-27T10:18:01.133Z,19.93
2018-04-27T10:20:28.581Z,22.57
2018-04-27T10:22:57.465Z,23.60
2018-04-27T10:25:25.643Z,11.10
2018-04-27T10:27:53.065Z,19.90
2018-04-27T10:30:20.481Z,16.30
2018-04-27T10:32:47.907Z,18.77
2018-04-27T10:35:15.355Z,14.13
2018-04-27T10:37:43.517Z,16.40
2018-04-27T10:40:11.704Z,18.90
2018-04-27T10:42:39.952Z,16.77
2018-04-27T10:45:07.394Z,15.93
2018-04-27T10:47:34.857Z,14.87
2018-04-27T10:50:03.008Z,8.50
2018-04-27T10:52:31.221Z,10.87
2018-04-27T10:54:59.421Z,27.37
2018-04-27T10:57:26.835Z,8.38
2018-04-27T10:59:54.277Z,5.90
2018-04-27T11:02:21.810Z,7.47
2018-04-27T11:04:49.230Z,14.93
2018-04-27T11:07:16.658Z,10.13
2018-04-27T11:09:44.149Z,10.10
2018-04-27T11:12:11.489Z,10.33
2018-04-27T11:14:38.892Z,5.93
2018-04-27T11:17:06.538Z,9.50
2018-04-27T11:19:34.482Z,7.10
2018-04-27T11:22:02.652Z,7.37
2018-04-27T11:24:30.080Z,3.53
2018-04-27T11:26:57.538Z,5.60
2018-04-27T11:29:25.699Z,3.57
2018-04-27T11:31:53.909Z,3.00
2018-04-27T11:34:21.379Z,2.37
2018-04-27T11:36:48.781Z,1.53
2018-04-27T11:39:16.204Z,3.37
2018-04-27T11:41:43.614Z,4.77
2018-04-27T11:44:11.020Z,4.50
2018-04-27T11:46:39.193Z,3.27
2018-04-27T11:49:07.402Z,3.07
2018-04-27T11:51:34.813Z,5.30
2018-04-27T11:54:02.229Z,3.43
2018-04-27T11:56:30.465Z,6.23
2018-04-27T11:58:57.885Z,1.75
2018-04-27T12:01:26.067Z,10.27
2018-04-27T12:03:54.239Z,2.63
2018-04-27T12:06:21.753Z,3.23
2018-04-27T12:08:49.926Z,3.53
2018-04-27T12:11:22.581Z,3.37
2018-04-27T12:13:50.092Z,3.67
2018-04-27T12:16:17.524Z,4.00
2018-04-27T12:18:44.940Z,3.87
2018-04-27T12:21:12.346Z,6.00
2018-04-27T12:23:39.753Z,3.60
2018-04-27T12:26:07.945Z,3.63
2018-04-27T12:28:35.429Z,2.00
2018-04-27T12:31:03.596Z,3.87
2018-04-27T12:33:31.012Z,6.23
2018-04-27T12:35:58.427Z,6.50
2018-04-27T12:38:26.621Z,3.57
2018-04-27T12:40:54.825Z,3.57
2018-04-27T12:43:22.259Z,4.07
2018-04-27T12:45:50.430Z,3.57
2018-04-27T12:48:17.972Z,4.50
2018-04-27T12:50:45.416Z,6.90
2018-04-27T12:53:12.892Z,5.43
2018-04-27T12:55:40.324Z,2.63
2018-04-27T12:58:08.519Z,13.93
2018-04-27T13:00:36.711Z,9.57
2018-04-27T13:03:04.201Z,3.70
2018-04-27T13:05:31.660Z,4.23
2018-04-27T13:07:59.086Z,2.77
2018-04-27T13:10:26.465Z,4.57
2018-04-27T13:12:54.684Z,3.87
2018-04-27T13:15:22.104Z,2.33
2018-04-27T13:17:49.661Z,2.95
2018-04-27T13:20:17.079Z,6.10
2018-04-27T13:22:44.561Z,6.47
2018-04-27T13:25:11.972Z,7.30
2018-04-27T13:27:39.380Z,6.30
2018-04-27T13:30:06.805Z,11.70
2018-04-27T13:32:34.236Z,8.97
2018-04-27T13:35:01.644Z,5.93
2018-04-27T13:37:29.049Z,4.00
2018-04-27T13:39:57.227Z,5.73
2018-04-27T13:42:25.408Z,3.93
2018-04-27T13:44:53.628Z,4.20
2018-04-27T13:47:21.097Z,3.33
2018-04-27T13:49:48.502Z,3.43
2018-04-27T13:52:15.906Z,6.03
2018-04-27T13:54:44.077Z,2.63
2018-04-27T13:57:12.257Z,9.23
2018-04-27T13:59:39.674Z,8.30
2018-04-27T14:02:07.094Z,5.20
2018-04-27T14:04:34.525Z,4.20
2018-04-27T14:07:01.964Z,7.00
2018-04-27T14:09:29.372Z,3.40
2018-04-27T14:11:56.790Z,5.23
2018-04-27T14:14:24.958Z,5.90
2018-04-27T14:16:52.365Z,7.30
2018-04-27T14:19:21.364Z,4.67
2018-04-27T14:21:48.773Z,7.53
2018-04-27T14:24:16.209Z,4.37
2018-04-27T14:26:44.386Z,9.37
2018-04-27T14:29:12.582Z,5.80
2018-04-27T14:31:40.035Z,5.90
2018-04-27T14:34:07.478Z,5.93
2018-04-27T14:36:34.886Z,7.90
2018-04-27T14:39:02.329Z,11.83
2018-04-27T14:41:30.519Z,6.37
2018-04-27T14:43:57.933Z,10.70
2018-04-27T14:46:25.370Z,7.77
2018-04-27T14:48:53.560Z,8.03
2018-04-27T14:51:21.800Z,9.00
2018-04-27T14:53:50.901Z,6.23
2018-04-27T14:56:18.320Z,9.93
2018-04-27T14:58:45.890Z,8.83
2018-04-27T15:01:14.084Z,7.53
2018-04-27T15:03:41.543Z,8.20
2018-04-27T15:06:08.957Z,33.73
2018-04-27T15:08:36.465Z,8.32
2018-04-27T15:11:03.862Z,8.87
2018-04-27T15:13:31.420Z,4.60
2018-04-27T15:15:58.900Z,13.47
2018-04-27T15:18:26.328Z,12.07
2018-04-27T15:20:53.720Z,12.23
2018-04-27T15:23:22.279Z,19.30
2018-04-27T15:25:49.718Z,5.47
2018-04-27T15:28:17.152Z,6.77
2018-04-27T15:30:44.564Z,10.07
2018-04-27T15:33:12.005Z,8.80
2018-04-27T15:35:39.484Z,8.00
2018-04-27T15:38:06.889Z,9.40
2018-04-27T15:40:34.309Z,8.07
2018-04-27T15:43:01.765Z,6.97
2018-04-27T15:45:29.180Z,11.00
2018-04-27T15:47:56.620Z,9.50
2018-04-27T15:50:24.058Z,7.83
2018-04-27T15:52:51.956Z,7.07
2018-04-27T15:55:19.371Z,5.70
2018-04-27T15:57:46.789Z,8.30
2018-04-27T16:00:14.209Z,11.13
2018-04-27T16:02:42.388Z,8.10
2018-04-27T16:05:09.912Z,6.67
2018-04-27T16:07:37.322Z,4.97
2018-04-27T16:10:04.745Z,8.00
2018-04-27T16:12:32.189Z,10.33
2018-04-27T16:15:00.450Z,7.40
2018-04-27T16:17:28.563Z,9.10
2018-04-27T16:19:56.744Z,8.43
2018-04-27T16:22:24.209Z,11.97
2018-04-27T16:24:53.273Z,8.57
2018-04-27T16:27:22.369Z,8.53
2018-04-27T16:29:49.855Z,9.90
2018-04-27T16:32:17.236Z,9.07
2018-04-27T16:34:44.764Z,8.97
2018-04-27T16:37:12.209Z,9.53
2018-04-27T16:39:40.451Z,8.10
2018-04-27T16:42:08.760Z,11.77
2018-04-27T16:44:36.138Z,9.37
2018-04-27T16:47:04.366Z,9.00
2018-04-27T16:49:31.829Z,10.40
2018-04-27T16:52:00.030Z,9.77
2018-04-27T16:54:27.516Z,8.23
2018-04-27T16:56:54.856Z,15.67
2018-04-27T16:59:23.656Z,18.70
2018-04-27T17:01:51.085Z,10.63
2018-04-27T17:04:19.312Z,6.80
2018-04-27T17:06:46.742Z,8.33
2018-04-27T17:09:14.245Z,13.73
2018-04-27T17:11:41.756Z,6.97
2018-04-27T17:14:09.177Z,9.70
2018-04-27T17:16:36.641Z,4.70
2018-04-27T17:19:04.796Z,8.07
2018-04-27T17:21:32.258Z,8.37
2018-04-27T17:23:59.773Z,12.63
2018-04-27T17:26:27.196Z,13.10
2018-04-27T17:28:54.632Z,9.07
2018-04-27T17:31:22.084Z,9.17
2018-04-27T17:33:50.582Z,10.77
2018-04-27T17:36:18.047Z,9.80
2018-04-27T17:38:46.242Z,8.07
2018-04-27T17:41:13.671Z,8.07
2018-04-27T17:43:41.896Z,13.07
2018-04-27T17:46:09.305Z,6.70
2018-04-27T17:48:36.728Z,6.90
2018-04-27T17:51:04.148Z,7.90
2018-04-27T17:53:31.569Z,13.90
2018-04-27T17:55:58.960Z,12.13
2018-04-27T17:58:26.372Z,15.33
2018-04-27T18:00:53.914Z,10.10
2018-04-27T18:03:22.118Z,11.53
2018-04-27T18:05:50.291Z,9.20
2018-04-27T18:08:17.704Z,12.50
2018-04-27T18:10:45.162Z,13.80
2018-04-27T18:13:12.581Z,9.73
2018-04-27T18:15:40.016Z,12.30
2018-04-27T18:18:07.457Z,8.10
2018-04-27T18:20:34.899Z,15.33
2018-04-27T18:23:02.337Z,16.33
2018-04-27T18:25:29.764Z,12.40
2018-04-27T18:27:57.139Z,8.10
2018-04-27T18:30:24.548Z,19.50
2018-04-27T18:32:51.996Z,10.40
2018-04-27T18:35:19.400Z,10.57
2018-04-27T18:37:46.822Z,15.07
2018-04-27T18:40:14.233Z,10.77
2018-04-27T18:42:41.698Z,13.33
2018-04-27T18:45:09.145Z,13.83
2018-04-27T18:47:36.541Z,16.10
2018-04-27T18:50:04.961Z,14.37
2018-04-27T18:52:33.181Z,11.00
2018-04-27T18:55:00.612Z,15.93
2018-04-27T18:57:28.785Z,16.97
2018-04-27T18:59:56.213Z,16.43
2018-04-27T19:02:23.685Z,15.93
2018-04-27T19:04:51.118Z,22.53
2018-04-27T19:07:20.649Z,11.73
2018-04-27T19:09:48.069Z,17.97
2018-04-27T19:12:15.488Z,9.50
2018-04-27T19:14:42.888Z,11.20
2018-04-27T19:17:13.102Z,13.53
2018-04-27T19:19:40.556Z,21.07
2018-04-27T19:22:07.969Z,10.20
2018-04-27T19:24:46.106Z,15.50
2018-04-27T19:27:13.511Z,21.13
2018-04-27T19:29:40.991Z,12.03
2018-04-27T19:32:08.462Z,13.90
2018-04-27T19:34:35.869Z,11.43
2018-04-27T19:37:04.073Z,16.23
2018-04-27T19:39:32.292Z,14.30
2018-04-27T19:42:00.462Z,11.33
2018-04-27T19:44:28.636Z,10.53
2018-04-27T19:46:56.822Z,11.90
2018-04-27T19:49:25.911Z,14.80
2018-04-27T19:51:55.757Z,13.67
2018-04-27T19:54:23.945Z,14.20
2018-04-27T19:56:56.704Z,18.30
2018-04-27T19:59:24.122Z,13.53
2018-04-27T20:01:51.597Z,13.77
2018-04-27T20:04:19.039Z,12.73
2018-04-27T20:06:47.213Z,13.50
2018-04-27T20:09:15.445Z,13.20
2018-04-27T20:11:43.689Z,14.63
2018-04-27T20:14:11.031Z,25.13
2018-04-27T20:16:40.401Z,9.33
2018-04-27T20:19:08.492Z,14.20
2018-04-27T20:21:35.954Z,8.47
2018-04-27T20:24:06.198Z,13.77
2018-04-27T20:26:33.625Z,16.07
2018-04-27T20:29:01.079Z,14.60
2018-04-27T20:31:28.456Z,15.90
2018-04-27T20:33:56.760Z,16.80
2018-04-27T20:36:25.879Z,17.00
2018-04-27T20:38:53.289Z,16.90
2018-04-27T20:41:20.704Z,16.33
2018-04-27T20:43:48.884Z,21.50
2018-04-27T20:46:17.972Z,22.33
2018-04-27T20:48:45.523Z,19.50
2018-04-27T20:51:12.954Z,19.07
2018-04-27T20:53:54.965Z,14.50
2018-04-27T20:59:17.913Z,18.67
2018-04-27T21:01:45.330Z,14.73
2018-04-27T21:04:12.744Z,16.43
2018-04-27T21:06:40.167Z,13.43
2018-04-27T21:09:08.346Z,23.67
2018-04-27T21:11:35.788Z,18.40
2018-04-27T21:14:04.013Z,16.60
2018-04-27T21:16:31.378Z,12.47
2018-04-27T21:18:58.788Z,17.40
2018-04-27T21:21:27.201Z,14.87
2018-04-27T21:23:54.621Z,12.43
2018-04-27T21:26:26.513Z,10.13
2018-04-27T21:28:53.961Z,11.77
2018-04-27T21:31:21.379Z,9.13
2018-04-27T21:33:53.275Z,20.57
2018-04-27T21:36:24.252Z,13.37
2018-04-27T21:39:14.393Z,12.87
2018-04-27T21:41:44.804Z,14.70
2018-04-27T21:44:14.825Z,13.03
2018-04-27T21:46:42.239Z,18.40
2018-04-27T21:49:10.462Z,18.10
2018-04-27T21:54:34.412Z,12.87
2018-04-27T22:00:14.580Z,16.13
2018-04-27T22:02:45.618Z,25.03
2018-04-27T22:05:13.025Z,24.03
2018-04-27T22:07:41.804Z,19.40
2018-04-27T22:10:09.998Z,14.90
2018-04-27T22:12:44.820Z,30.40
2018-04-27T22:15:12.328Z,14.77
2018-04-27T22:17:39.746Z,21.90
2018-04-27T22:20:07.161Z,14.03
2018-04-27T22:22:34.600Z,29.17
2018-04-27T22:25:19.234Z,20.43
2018-04-27T22:27:47.591Z,17.60
2018-04-27T22:30:17.553Z,16.30
2018-04-27T22:32:44.973Z,12.57
2018-04-27T22:35:17.693Z,18.90
2018-04-27T22:37:45.149Z,14.50
2018-04-27T22:40:23.606Z,17.53
2018-04-27T22:45:48.948Z,17.00
2018-04-27T22:48:23.036Z,15.37
2018-04-27T22:50:55.247Z,25.80
2018-04-27T22:53:23.318Z,19.40
2018-04-27T22:55:50.891Z,26.00
2018-04-27T22:58:19.057Z,26.73
2018-04-27T23:00:51.090Z,19.87
2018-04-27T23:03:22.512Z,15.87
2018-04-27T23:05:49.928Z,14.13
2018-04-27T23:08:17.350Z,22.50
2018-04-27T23:10:48.185Z,21.47
2018-04-27T23:13:24.992Z,26.40
2018-04-27T23:15:52.408Z,23.83
2018-04-27T23:18:19.904Z,23.37
2018-04-27T23:20:48.045Z,24.63
2018-04-27T23:23:15.462Z,20.00
2018-04-27T23:25:48.300Z,22.43
2018-04-27T23:28:15.700Z,23.23
2018-04-27T23:30:43.113Z,22.50
2018-04-27T23:33:11.193Z,28.20
2018-04-27T23:35:52.241Z,23.83
2018-04-27T23:38:19.664Z,30.33
2018-04-27T23:40:51.630Z,18.80
2018-04-27T23:43:20.024Z,17.90
2018-04-27T23:45:48.203Z,18.33
2018-04-27T23:48:16.365Z,20.20
2018-04-27T23:50:57.062Z,20.03
2018-04-27T23:53:25.266Z,16.10
2018-04-27T23:55:52.729Z,16.60
2018-04-27T23:58:26.356Z,24.20
